Bitte die für das Benutzerkonto hinterlegte E-Mail-Adresse eingeben. Der Benutzername wird dann an diese E-Mail-Adresse geschickt.

 

 

Flugplatzfest 2019

Anmeldung Vans Treffen

WebCam

  
Kamera Halle
Kamera Vorfeld
Wetter EDDS

METAR

EDDS 201020Z 35006KT 300V020 9999 SCT040 18/11 Q1023 NOSIG =
EDDS 200500Z 2006/2106 29002KT CAVOK BECMG 2008/2011 33007KT PROB30 TEMPO 2015/2019 RA BECMG 2018/2021 VRB03KT


TAF

EDDS 200500Z 2006/2106 29002KT CAVOK BECMG 2008/2011 33007KT PROB30 TEMPO 2015/2019 RA BECMG 2018/2021 VRB03KT =


SR/SS

04:21 / 18:28 UTC
(EDSO 20-08-2019)